Time;durP1;ratioP1;P1;durP2;ratioP2;P2;SDS_P1;SDS_P2;PMS_P1;PMS_P2;Temp;Humidity;BMP_temperature;BMP_pressure;BME280_temperature;BME280_humidity;BME280_pressure;Samples;Min_cycle;Max_cycle;Signal;HPM_P1;HPM_P2
2021/12/25 00:02:20;;;;;;;0.00;0.00;;;;;;;10.14;81.51;99264.69;7365027;19;20071;-57
2021/12/25 00:04:45;;;;;;;0.10;0.10;;;;;;;10.17;81.20;99275.88;7363361;19;20482;-58
2021/12/25 00:07:11;;;;;;;0.03;0.03;;;;;;;10.19;81.24;99281.84;7359401;19;20089;-58
2021/12/25 00:09:36;;;;;;;0.00;0.00;;;;;;;10.21;81.65;99286.09;7363113;19;20014;-57
2021/12/25 00:12:02;;;;;;;0.00;0.00;;;;;;;10.23;81.46;99279.06;7360458;19;20010;-58
2021/12/25 00:14:28;;;;;;;0.10;0.10;;;;;;;10.25;81.40;99282.50;7365967;19;20022;-58
2021/12/25 00:16:53;;;;;;;0.00;0.00;;;;;;;10.30;81.50;99284.91;7364244;19;20042;-58
2021/12/25 00:19:19;;;;;;;0.05;0.05;;;;;;;10.32;81.75;99277.84;7357652;19;20027;-58
2021/12/25 00:21:44;;;;;;;0.10;0.10;;;;;;;10.21;81.59;99259.19;7361684;19;20041;-57
2021/12/25 00:24:10;;;;;;;0.00;0.00;;;;;;;10.34;81.73;99274.25;7365005;19;20125;-58
2021/12/25 00:27:01;;;;;;;0.00;0.00;;;;;;;10.33;81.62;99267.31;7358012;19;20027;-57
2021/12/25 00:34:46;;;;;;;0.10;0.10;;;;;;;10.41;80.97;99268.75;7358552;19;20034;-58
2021/12/25 00:37:11;;;;;;;0.00;0.00;;;;;;;10.34;80.76;99261.22;7356968;19;20011;-58
2021/12/25 00:39:37;;;;;;;0.00;0.00;;;;;;;10.38;81.29;99257.53;7358043;19;20030;-57
2021/12/25 00:42:04;;;;;;;0.10;0.10;;;;;;;10.36;80.85;99263.75;7357297;19;20034;-58
2021/12/25 00:44:30;;;;;;;0.10;0.10;;;;;;;10.04;81.36;99216.44;7361223;19;20074;-58
2021/12/25 00:46:57;;;;;;;0.05;0.05;;;;;;;10.37;81.35;99268.03;7354302;19;20094;-57
2021/12/25 00:49:24;;;;;;;0.00;0.00;;;;;;;10.35;81.19;99265.50;7355474;19;20042;-58
2021/12/25 00:51:49;;;;;;;0.00;0.00;;;;;;;10.29;81.20;99247.53;7355144;19;20023;-58
2021/12/25 00:54:15;;;;;;;0.10;0.10;;;;;;;10.39;81.55;99263.59;7360917;19;20022;-57
2021/12/25 00:56:42;;;;;;;0.10;0.10;;;;;;;10.42;81.19;99273.06;7351465;19;20015;-58
2021/12/25 00:59:08;;;;;;;0.00;0.00;;;;;;;10.26;80.99;99236.38;7352796;19;20010;-58
2021/12/25 01:01:34;;;;;;;0.10;0.10;;;;;;;10.44;81.00;99272.09;7334842;19;20021;-57
2021/12/25 01:03:59;;;;;;;0.00;0.00;;;;;;;10.47;81.49;99277.16;7353196;19;20014;-57
2021/12/25 01:06:26;;;;;;;0.00;0.00;;;;;;;10.49;81.13;99264.91;7355532;19;20022;-58
2021/12/25 01:08:52;;;;;;;0.10;0.10;;;;;;;10.52;81.26;99274.34;7354705;19;20021;-57
2021/12/25 01:11:17;;;;;;;0.00;0.00;;;;;;;10.45;81.35;99252.91;7356140;19;20011;-58
2021/12/25 01:13:50;;;;;;;0.00;0.00;;;;;;;10.58;81.22;99266.22;7350977;19;20011;-58
2021/12/25 01:16:33;;;;;;;0.10;0.10;;;;;;;10.55;81.58;99267.22;7355475;19;20038;-57
2021/12/25 01:35:16;;;;;;;0.10;0.10;;;;;;;10.72;81.00;99276.03;7366917;19;20035;-58
2021/12/25 01:37:48;;;;;;;0.10;0.10;;;;;;;10.67;81.01;99272.78;7269766;19;2004249;-58
2021/12/25 01:48:15;;;;;;;0.00;0.00;;;;;;;10.73;80.69;99267.28;7263416;19;2005061;-58
2021/12/25 01:50:41;;;;;;;0.10;0.10;;;;;;;10.71;80.45;99269.13;7367308;19;20737;-58
2021/12/25 01:53:06;;;;;;;0.00;0.00;;;;;;;10.67;80.82;99267.56;7370924;19;20014;-58
2021/12/25 01:55:32;;;;;;;0.00;0.00;;;;;;;10.68;80.78;99264.03;7366849;19;20025;-58
2021/12/25 01:58:00;;;;;;;0.10;0.10;;;;;;;10.65;80.85;99258.06;7370348;19;20011;-58
2021/12/25 02:00:43;;;;;;;0.00;0.00;;;;;;;10.67;80.64;99265.81;7366655;19;20010;-58
2021/12/25 02:03:13;;;;;;;0.00;0.00;;;;;;;10.65;80.37;99260.66;7365228;19;20481;-58
2021/12/25 02:05:38;;;;;;;0.10;0.10;;;;;;;10.61;80.37;99259.09;7369205;19;20022;-58
2021/12/25 02:08:04;;;;;;;0.08;0.08;;;;;;;10.61;80.34;99260.88;7367171;19;20018;-58
2021/12/25 02:10:30;;;;;;;0.10;0.10;;;;;;;10.60;80.86;99265.25;7369869;19;20017;-58
2021/12/25 02:12:55;;;;;;;0.10;0.10;;;;;;;10.60;80.46;99261.81;7339100;19;20014;-58
2021/12/25 02:15:26;;;;;;;0.00;0.00;;;;;;;10.58;80.76;99264.47;7362990;19;20017;-57
2021/12/25 02:20:31;;;;;;;0.00;0.00;;;;;;;10.58;80.53;99266.22;7368164;19;20089;-58
2021/12/25 02:23:02;;;;;;;0.00;0.00;;;;;;;10.56;80.53;99271.53;7365246;19;20019;-59
2021/12/25 02:25:30;;;;;;;0.00;0.00;;;;;;;10.56;80.65;99276.75;7366046;19;20481;-57
2021/12/25 02:27:56;;;;;;;0.00;0.00;;;;;;;10.54;80.85;99275.97;7366563;19;20025;-58
2021/12/25 02:30:22;;;;;;;0.08;0.08;;;;;;;10.54;80.69;99278.59;7363292;19;20019;-57
2021/12/25 02:32:47;;;;;;;0.00;0.00;;;;;;;10.52;80.88;99269.97;7364829;19;20422;-57
2021/12/25 02:35:15;;;;;;;0.00;0.00;;;;;;;10.53;80.80;99271.66;7367045;19;20034;-57
2021/12/25 02:37:41;;;;;;;0.00;0.00;;;;;;;10.54;81.05;99267.28;7367565;19;20003;-57
2021/12/25 02:40:08;;;;;;;0.00;0.00;;;;;;;10.44;81.19;99259.03;7367816;19;20044;-58
2021/12/25 02:42:35;;;;;;;0.00;0.00;;;;;;;10.54;81.11;99270.75;7358988;19;20002;-58
2021/12/25 02:45:02;;;;;;;0.03;0.03;;;;;;;10.50;81.06;99274.41;7368567;19;22056;-57
2021/12/25 02:47:30;;;;;;;0.10;0.10;;;;;;;10.53;80.86;99271.66;7366633;19;20026;-57
2021/12/25 02:49:55;;;;;;;0.00;0.00;;;;;;;10.54;80.88;99272.50;7363528;19;20037;-57
2021/12/25 02:52:21;;;;;;;0.00;0.00;;;;;;;10.53;80.98;99266.44;7368967;19;20459;-58
2021/12/25 02:54:46;;;;;;;0.00;0.00;;;;;;;10.47;81.23;99269.31;7362403;19;20014;-57
2021/12/25 02:57:12;;;;;;;0.10;0.10;;;;;;;10.54;80.83;99282.94;7367958;19;20292;-58
2021/12/25 02:59:38;;;;;;;0.00;0.00;;;;;;;10.55;81.16;99276.81;7350003;19;20034;-56
2021/12/25 03:02:12;;;;;;;0.08;0.08;;;;;;;10.58;81.19;99279.28;7365179;19;20031;-59
2021/12/25 03:04:40;;;;;;;0.00;0.00;;;;;;;10.43;81.00;99254.72;7366441;19;20394;-58
2021/12/25 03:07:05;;;;;;;;;;;;;;;10.61;80.75;99284.38;7358138;19;20033;-57
2021/12/25 03:09:32;;;;;;;0.10;0.10;;;;;;;10.59;81.10;99276.63;7364240;19;19978;-58
2021/12/25 03:11:57;;;;;;;0.10;0.10;;;;;;;10.58;81.03;99269.69;7364895;19;20011;-58
2021/12/25 03:15:01;;;;;;;0.00;0.00;;;;;;;10.60;80.77;99277.47;7364281;19;20021;-57
2021/12/25 03:17:11;;;;;;;0.10;0.10;;;;;;;10.60;80.94;99275.69;7363472;19;20022;-57
2021/12/25 03:19:36;;;;;;;0.00;0.00;;;;;;;10.61;80.85;99272.16;7362653;19;20010;-57
2021/12/25 03:22:04;;;;;;;0.10;0.10;;;;;;;10.62;80.98;99276.47;7359935;19;20031;-57
2021/12/25 03:24:29;;;;;;;0.00;0.00;;;;;;;10.56;81.20;99281.97;7366456;19;20060;-57
2021/12/25 03:26:57;;;;;;;0.00;0.00;;;;;;;10.64;80.85;99279.88;7364425;19;20094;-58
2021/12/25 03:29:27;;;;;;;0.10;0.10;;;;;;;10.67;81.19;99272.78;7338306;19;20098;-58
2021/12/25 03:31:53;;;;;;;0.10;0.10;;;;;;;10.68;80.98;99282.31;7361469;19;20006;-58
2021/12/25 03:34:19;;;;;;;0.10;0.10;;;;;;;10.68;81.21;99274.50;7363945;19;20017;-57
2021/12/25 03:36:45;;;;;;;0.00;0.00;;;;;;;10.70;81.15;99277.91;7364230;19;20019;-58
2021/12/25 03:39:12;;;;;;;0.08;0.08;;;;;;;10.70;81.10;99283.13;7352264;19;20136;-58
2021/12/25 03:41:37;;;;;;;0.10;0.10;;;;;;;10.70;80.95;99289.19;7365883;19;20354;-57
2021/12/25 03:44:04;;;;;;;0.10;0.10;;;;;;;10.68;80.95;99279.72;7353309;19;20011;-57
2021/12/25 03:46:30;;;;;;;0.00;0.00;;;;;;;10.72;81.13;99282.09;7365159;19;20767;-58
2021/12/25 03:49:04;;;;;;;0.00;0.00;;;;;;;10.76;80.90;99294.13;7363341;19;20014;-58
2021/12/25 03:59:49;;;;;;;0.10;0.10;;;;;;;10.74;81.00;99279.41;7361650;19;20021;-57
2021/12/25 04:02:20;;;;;;;0.00;0.00;;;;;;;10.81;80.54;99286.91;7363399;19;20023;-57
2021/12/25 04:04:49;;;;;;;0.10;0.10;;;;;;;10.83;80.98;99289.44;7360796;19;20021;-58
2021/12/25 04:09:47;;;;;;;0.10;0.10;;;;;;;10.84;80.56;99288.53;7363937;19;20022;-59
2021/12/25 04:12:13;;;;;;;0.10;0.10;;;;;;;10.85;80.44;99287.63;7365097;19;20034;-57
2021/12/25 04:14:39;;;;;;;0.00;0.00;;;;;;;10.84;80.54;99296.34;7365127;19;20987;-57
2021/12/25 04:17:05;;;;;;;0.05;0.05;;;;;;;10.85;80.41;99303.28;7361924;19;20015;-58
2021/12/25 04:19:32;;;;;;;0.10;0.10;;;;;;;10.84;80.79;99293.75;7358211;19;20011;-58
2021/12/25 04:22:02;;;;;;;0.10;0.10;;;;;;;10.84;80.61;99291.97;7361909;19;20031;-58
2021/12/25 04:24:31;;;;;;;0.00;0.00;;;;;;;10.85;80.47;99295.47;7366069;19;20018;-57
2021/12/25 04:26:57;;;;;;;0.03;0.03;;;;;;;10.75;80.24;99270.69;7362658;19;20010;-57
2021/12/25 05:01:58;;;;;;;0.03;0.03;;;;;;;10.75;79.99;99281.13;7366882;19;20024;-57
2021/12/25 05:04:24;;;;;;;0.03;0.03;;;;;;;10.68;80.00;99271.88;7362923;19;20545;-57
2021/12/25 05:06:50;;;;;;;0.00;0.00;;;;;;;10.62;80.09;99260.78;7364989;19;20008;-57
2021/12/25 05:09:16;;;;;;;0.03;0.03;;;;;;;10.73;79.88;99272.50;7367186;19;20764;-57
2021/12/25 05:11:42;;;;;;;0.10;0.10;;;;;;;10.73;80.09;99277.72;7372854;19;20015;-58
2021/12/25 05:14:07;;;;;;;0.00;0.00;;;;;;;10.71;79.87;99274.34;7366764;19;20565;-57
2021/12/25 05:16:33;;;;;;;0.10;0.10;;;;;;;10.70;79.66;99270.06;7375018;19;20018;-57
2021/12/25 05:18:58;;;;;;;0.10;0.10;;;;;;;10.68;80.15;99270.09;7369594;19;20002;-57
2021/12/25 05:21:24;;;;;;;0.05;0.05;;;;;;;10.70;79.69;99273.50;7369358;19;20017;-58
2021/12/25 05:23:49;;;;;;;0.00;0.00;;;;;;;10.71;79.81;99279.56;7372434;19;20041;-57
2021/12/25 05:26:15;;;;;;;0.00;0.00;;;;;;;10.72;79.73;99270.81;7369033;19;20020;-58
2021/12/25 05:28:44;;;;;;;0.10;0.10;;;;;;;10.60;80.09;99254.81;7370993;19;20797;-58
2021/12/25 05:31:12;;;;;;;0.00;0.00;;;;;;;10.73;80.17;99283.78;7366218;19;20014;-58
2021/12/25 05:33:38;;;;;;;0.00;0.00;;;;;;;10.74;79.82;99279.41;7367931;19;20009;-58
2021/12/25 05:36:05;;;;;;;0.10;0.10;;;;;;;10.56;79.56;99250.66;7370028;19;20016;-58
2021/12/25 05:38:32;;;;;;;0.10;0.10;;;;;;;10.74;79.65;99269.81;7370912;19;20404;-57
2021/12/25 05:40:57;;;;;;;0.10;0.10;;;;;;;10.73;79.47;99277.72;7371860;19;20997;-57
2021/12/25 05:43:23;;;;;;;0.00;0.00;;;;;;;10.74;79.74;99279.41;7368900;19;20002;-58
2021/12/25 05:45:48;;;;;;;0.10;0.10;;;;;;;10.73;79.63;99272.50;7371668;19;20003;-58
2021/12/25 05:48:14;;;;;;;0.10;0.10;;;;;;;10.72;79.65;99274.28;7367069;19;20014;-57
2021/12/25 05:50:39;;;;;;;0.10;0.10;;;;;;;10.72;79.55;99281.28;7368649;19;20007;-58
2021/12/25 05:53:06;;;;;;;0.10;0.10;;;;;;;10.72;80.04;99274.28;7370598;19;20133;-57
2021/12/25 05:55:32;;;;;;;0.03;0.03;;;;;;;10.71;79.96;99280.41;7370597;19;20352;-58
2021/12/25 05:57:59;;;;;;;0.10;0.10;;;;;;;10.72;79.92;99273.44;7370167;19;20014;-55
2021/12/25 06:00:25;;;;;;;0.00;0.00;;;;;;;10.69;79.94;99281.41;7370010;19;20027;-57
2021/12/25 06:02:51;;;;;;;0.10;0.10;;;;;;;10.70;79.46;99272.66;7370574;19;20476;-57
2021/12/25 06:05:18;;;;;;;0.10;0.10;;;;;;;10.69;79.50;99277.00;7369200;19;20031;-57
2021/12/25 06:07:43;;;;;;;0.00;0.00;;;;;;;10.59;79.91;99266.19;7366494;19;20019;-57
2021/12/25 06:10:10;;;;;;;0.08;0.08;;;;;;;10.67;79.56;99275.41;7366259;19;20364;-57
2021/12/25 06:12:41;;;;;;;0.00;0.00;;;;;;;10.68;79.58;99264.03;7370172;19;20038;-57
2021/12/25 06:15:08;;;;;;;0.00;0.00;;;;;;;10.65;79.43;99270.28;7369837;19;20011;-57
2021/12/25 06:17:34;;;;;;;0.10;0.10;;;;;;;10.63;79.93;99262.47;7361623;19;20023;-58
2021/12/25 06:19:59;;;;;;;0.00;0.00;;;;;;;10.61;79.61;99259.09;7371705;19;20014;-58
2021/12/25 06:22:24;;;;;;;0.08;0.08;;;;;;;10.62;79.88;99255.56;7368415;19;20365;-57
2021/12/25 06:24:50;;;;;;;0.10;0.10;;;;;;;10.60;79.68;99246.97;7371544;19;20035;-57
2021/12/25 06:27:17;;;;;;;0.00;0.00;;;;;;;10.63;79.77;99257.25;7369009;19;20062;-57
2021/12/25 06:29:43;;;;;;;0.00;0.00;;;;;;;10.60;79.38;99244.38;7366506;19;20018;-58
2021/12/25 06:32:09;;;;;;;0.05;0.05;;;;;;;10.60;79.68;99246.97;7370750;19;20097;-57
2021/12/25 06:34:35;;;;;;;0.00;0.00;;;;;;;10.60;79.60;99256.56;7366069;19;20092;-57
2021/12/25 06:37:01;;;;;;;0.00;0.00;;;;;;;10.48;79.41;99226.66;7372000;19;20026;-57
2021/12/25 06:39:26;;;;;;;0.10;0.10;;;;;;;10.52;79.68;99238.66;7364902;19;20010;-58
2021/12/25 06:41:52;;;;;;;0.00;0.00;;;;;;;10.56;79.42;99252.41;7367849;19;20469;-58
2021/12/25 06:44:20;;;;;;;0.00;0.00;;;;;;;10.55;79.62;99243.75;7370282;19;20014;-57
2021/12/25 06:46:46;;;;;;;0.10;0.10;;;;;;;10.47;79.41;99232.78;7365802;19;20006;-57
2021/12/25 06:49:11;;;;;;;0.00;0.00;;;;;;;10.52;79.63;99241.25;7369846;19;20069;-57
2021/12/25 06:51:36;;;;;;;0.10;0.10;;;;;;;10.51;79.61;99250.00;7358745;19;20015;-57
2021/12/25 06:54:03;;;;;;;0.10;0.10;;;;;;;10.49;79.21;99254.47;7370163;19;20002;-57
2021/12/25 06:56:29;;;;;;;0.10;0.10;;;;;;;10.49;79.37;99244.03;7365875;19;20002;-57
2021/12/25 06:58:55;;;;;;;0.10;0.10;;;;;;;10.49;79.13;99241.41;7365833;19;20027;-57
2021/12/25 07:01:20;;;;;;;0.00;0.00;;;;;;;10.47;79.17;99242.38;7366745;19;20007;-57
2021/12/25 07:03:46;;;;;;;0.10;0.10;;;;;;;10.46;79.08;99245.91;7364904;19;20021;-58
2021/12/25 07:06:11;;;;;;;0.00;0.00;;;;;;;10.45;79.60;99245.06;7364821;19;20027;-57
2021/12/25 07:08:37;;;;;;;0.00;0.00;;;;;;;10.45;79.16;99247.69;7369424;19;20038;-57
2021/12/25 07:11:02;;;;;;;0.00;0.00;;;;;;;10.44;79.67;99246.00;7364461;19;20019;-57
2021/12/25 07:13:28;;;;;;;0.00;0.00;;;;;;;10.42;79.69;99247.81;7367603;19;20010;-58
2021/12/25 07:15:53;;;;;;;0.00;0.00;;;;;;;10.34;79.55;99235.13;7365739;19;20026;-56
2021/12/25 07:18:19;;;;;;;0.10;0.10;;;;;;;10.42;79.71;99250.41;7367378;19;20660;-57
2021/12/25 07:20:48;;;;;;;0.00;0.00;;;;;;;10.43;79.75;99261.69;7360999;19;20046;-57
2021/12/25 07:23:14;;;;;;;0.00;0.00;;;;;;;10.42;79.68;99249.56;7369284;19;20010;-58
2021/12/25 07:25:39;;;;;;;0.00;0.00;;;;;;;10.42;79.80;99241.75;7368051;19;20003;-57
2021/12/25 07:28:05;;;;;;;0.00;0.00;;;;;;;10.43;79.50;99248.66;7363842;19;20608;-57
2021/12/25 07:30:30;;;;;;;0.00;0.00;;;;;;;10.33;79.69;99236.00;7367124;19;20511;-57
2021/12/25 07:32:56;;;;;;;0.00;0.00;;;;;;;10.42;79.71;99255.63;7364073;19;20010;-57
2021/12/25 07:35:21;;;;;;;0.00;0.00;;;;;;;10.43;79.18;99251.25;7366649;19;20481;-57
2021/12/25 07:37:47;;;;;;;0.10;0.10;;;;;;;10.42;79.67;99247.81;7366351;19;20014;-58
2021/12/25 07:40:12;;;;;;;0.00;0.00;;;;;;;10.41;79.26;99240.91;7366812;19;20038;-58
2021/12/25 07:42:39;;;;;;;0.10;0.10;;;;;;;10.40;79.69;99239.22;7353362;19;20010;-57
2021/12/25 07:45:06;;;;;;;0.00;0.00;;;;;;;10.29;79.62;99226.66;7362474;19;20038;-57
2021/12/25 07:47:39;;;;;;;0.00;0.00;;;;;;;10.38;79.59;99241.03;7358315;19;20010;-56
2021/12/25 07:50:05;;;;;;;0.00;0.00;;;;;;;10.35;79.77;99241.19;7364728;19;20015;-57
2021/12/25 07:52:31;;;;;;;0.00;0.00;;;;;;;10.31;79.65;99242.22;7364256;19;20126;-58
2021/12/25 07:54:56;;;;;;;0.03;0.03;;;;;;;10.32;79.44;99249.97;7365915;19;20714;-58
2021/12/25 07:57:22;;;;;;;0.00;0.00;;;;;;;10.19;79.69;99227.06;7365982;19;20825;-57
2021/12/25 07:59:48;;;;;;;0.00;0.00;;;;;;;10.28;79.53;99231.91;7366264;19;20467;-57
2021/12/25 08:02:13;;;;;;;0.00;0.00;;;;;;;10.29;79.93;99225.78;7362144;19;20010;-57
2021/12/25 08:04:39;;;;;;;0.00;0.00;;;;;;;10.13;79.60;99202.97;7361441;19;20045;-57
2021/12/25 08:07:04;;;;;;;0.00;0.00;;;;;;;10.26;79.50;99223.34;7361040;19;20015;-58
2021/12/25 08:09:31;;;;;;;0.00;0.00;;;;;;;10.26;79.97;99226.78;7364557;19;20010;-58
2021/12/25 08:12:01;;;;;;;0.00;0.00;;;;;;;10.24;80.07;99227.75;7355395;19;20032;-57
2021/12/25 08:14:28;;;;;;;0.00;0.00;;;;;;;10.23;79.86;99234.69;7361345;19;20007;-57
2021/12/25 08:16:56;;;;;;;0.10;0.10;;;;;;;10.22;79.82;99232.16;7360395;19;20706;-57
2021/12/25 08:19:23;;;;;;;0.10;0.10;;;;;;;10.23;79.98;99244.28;7361432;19;20014;-56
2021/12/25 08:21:49;;;;;;;0.00;0.00;;;;;;;10.21;79.87;99239.16;7364799;19;20010;-57
2021/12/25 08:24:15;;;;;;;0.10;0.10;;;;;;;10.22;79.93;99240.00;7366498;19;20022;-57
2021/12/25 08:26:40;;;;;;;0.00;0.00;;;;;;;10.22;79.92;99245.22;7366490;19;20114;-58
2021/12/25 08:29:06;;;;;;;0.10;0.10;;;;;;;10.19;79.88;99241.00;7361150;19;20348;-57
2021/12/25 08:31:31;;;;;;;0.08;0.08;;;;;;;10.18;80.10;99233.22;7366422;19;20011;-57
2021/12/25 08:33:57;;;;;;;0.00;0.00;;;;;;;10.17;79.80;99247.19;7364448;19;20018;-56
2021/12/25 08:36:22;;;;;;;0.00;0.00;;;;;;;10.14;80.20;99243.81;7364350;19;20037;-57
2021/12/25 08:38:48;;;;;;;0.05;0.05;;;;;;;10.13;80.23;99244.69;7363597;19;20039;-57
2021/12/25 08:41:14;;;;;;;0.00;0.00;;;;;;;10.13;80.01;99257.72;7356043;19;20011;-57
2021/12/25 08:43:46;;;;;;;0.10;0.10;;;;;;;10.03;79.99;99230.38;7371358;19;20015;-58
2021/12/25 08:46:18;;;;;;;0.00;0.00;;;;;;;10.10;80.15;99242.25;7357382;19;20522;-57
2021/12/25 08:48:45;;;;;;;0.00;0.00;;;;;;;10.10;80.10;99244.84;7372029;19;20509;-57
2021/12/25 08:51:11;;;;;;;0.00;0.00;;;;;;;10.09;80.22;99240.56;7354561;19;20939;-56
2021/12/25 08:53:37;;;;;;;0.10;0.10;;;;;;;10.07;80.22;99257.16;7371885;19;20010;-58
2021/12/25 08:56:02;;;;;;;0.10;0.10;;;;;;;10.08;79.96;99243.22;7365930;19;20813;-57
2021/12/25 08:58:31;;;;;;;0.10;0.10;;;;;;;10.07;79.97;99252.78;7366866;19;20014;-57
2021/12/25 09:01:01;;;;;;;0.00;0.00;;;;;;;10.06;80.20;99248.50;7363157;19;20442;-58
2021/12/25 09:03:28;;;;;;;0.00;0.00;;;;;;;10.04;80.41;99247.72;7368284;19;20010;-56
2021/12/25 09:05:58;;;;;;;0.08;0.08;;;;;;;10.04;80.50;99258.16;7366758;19;20077;-58
2021/12/25 09:08:24;;;;;;;0.10;0.10;;;;;;;9.91;80.46;99237.91;7368513;19;20018;-58
2021/12/25 09:10:49;;;;;;;0.00;0.00;;;;;;;10.01;80.14;99255.69;7369477;19;20006;-58
2021/12/25 09:13:15;;;;;;;0.00;0.00;;;;;;;10.01;80.06;99247.00;7365531;19;20019;-58
2021/12/25 09:15:40;;;;;;;0.00;0.00;;;;;;;9.95;80.39;99252.50;7368921;19;20034;-58
2021/12/25 09:18:06;;;;;;;0.00;0.00;;;;;;;9.99;80.14;99259.28;7368561;19;20034;-58
2021/12/25 09:20:31;;;;;;;0.00;0.00;;;;;;;9.97;80.50;99261.94;7365543;19;20018;-57
2021/12/25 09:22:57;;;;;;;0.00;0.00;;;;;;;9.96;80.13;99259.41;7366361;19;20014;-58
2021/12/25 09:25:24;;;;;;;0.00;0.00;;;;;;;9.95;80.54;99269.00;7371452;19;20021;-58
2021/12/25 09:27:50;;;;;;;0.10;0.10;;;;;;;9.95;80.03;99258.56;7365048;19;20532;-59
2021/12/25 09:30:16;;;;;;;0.00;0.00;;;;;;;9.92;80.51;99265.66;7366761;19;22038;-59
2021/12/25 09:32:42;;;;;;;0.00;0.00;;;;;;;9.94;80.12;99282.94;7362536;19;20017;-58
2021/12/25 09:35:09;;;;;;;0.00;0.00;;;;;;;9.93;80.01;99275.16;7367123;19;20014;-58
2021/12/25 09:37:35;;;;;;;0.10;0.10;;;;;;;9.90;80.05;99263.13;7369052;19;20451;-59
2021/12/25 09:40:01;;;;;;;0.00;0.00;;;;;;;9.90;80.36;99267.50;7364925;19;20512;-59
2021/12/25 09:42:27;;;;;;;0.10;0.10;;;;;;;9.84;80.08;99271.22;7363098;19;20010;-58
2021/12/25 09:44:53;;;;;;;0.05;0.05;;;;;;;9.86;80.28;99282.41;7368459;19;22160;-58
2021/12/25 09:47:19;;;;;;;0.10;0.10;;;;;;;9.84;80.38;99266.00;7363386;19;20789;-58
2021/12/25 09:49:45;;;;;;;0.10;0.10;;;;;;;9.84;80.29;99268.59;7367061;19;20678;-58
2021/12/25 09:52:10;;;;;;;0.00;0.00;;;;;;;9.82;80.13;99271.25;7367263;19;20018;-58
2021/12/25 09:54:36;;;;;;;0.00;0.00;;;;;;;9.78;80.26;99255.81;7366856;19;20017;-58
2021/12/25 09:57:01;;;;;;;0.00;0.00;;;;;;;9.78;80.55;99258.41;7363147;19;20014;-58
2021/12/25 09:59:27;;;;;;;0.10;0.10;;;;;;;9.77;80.44;99260.19;7361172;19;20102;-58
2021/12/25 10:01:55;;;;;;;0.00;0.00;;;;;;;9.77;80.59;99260.19;7365826;19;20729;-58
2021/12/25 10:04:40;;;;;;;0.10;0.10;;;;;;;9.80;80.61;99254.00;7359554;19;20793;-59
2021/12/25 10:07:15;;;;;;;0.00;0.00;;;;;;;9.79;80.35;99252.31;7363035;19;20010;-58
2021/12/25 10:09:40;;;;;;;0.03;0.03;;;;;;;9.64;80.67;99247.75;7367870;19;20098;-59
2021/12/25 10:12:10;;;;;;;0.00;0.00;;;;;;;9.77;80.74;99254.13;7367656;19;20077;-59
2021/12/25 10:14:37;;;;;;;0.00;0.00;;;;;;;9.77;80.45;99254.13;7363835;19;20014;-58
2021/12/25 10:17:27;;;;;;;0.10;0.10;;;;;;;9.82;80.40;99252.16;7364368;19;20023;-58
2021/12/25 10:20:11;;;;;;;0.10;0.10;;;;;;;9.79;80.69;99247.09;7365127;19;20017;-58
2021/12/25 10:22:52;;;;;;;0.05;0.05;;;;;;;9.80;80.69;99256.59;7363757;19;20026;-59
2021/12/25 10:25:17;;;;;;;0.00;0.00;;;;;;;9.76;80.73;99263.69;7365291;19;20071;-58
2021/12/25 10:27:53;;;;;;;0.00;0.00;;;;;;;9.77;80.32;99261.94;7363175;19;21078;-58
2021/12/25 10:30:19;;;;;;;0.10;0.10;;;;;;;9.75;80.63;99253.34;7363630;19;20106;-58
2021/12/25 10:32:44;;;;;;;0.00;0.00;;;;;;;9.69;80.73;99241.44;7363111;19;20710;-59
2021/12/25 10:35:19;;;;;;;0.00;0.00;;;;;;;9.73;80.58;99244.72;7362781;19;20551;-59
2021/12/25 10:37:47;;;;;;;0.00;0.00;;;;;;;9.78;80.70;99264.50;7363803;19;20768;-59
2021/12/25 10:40:26;;;;;;;0.00;0.00;;;;;;;9.82;80.59;99265.19;7361235;19;20043;-58
2021/12/25 10:42:54;;;;;;;0.10;0.10;;;;;;;9.70;80.51;99257.91;7363585;19;20557;-58
2021/12/25 10:45:19;;;;;;;;;;;;;;;9.82;80.25;99268.66;7364500;19;20086;-58
2021/12/25 10:47:45;;;;;;;0.10;0.10;;;;;;;9.80;80.43;99259.22;7365469;19;19974;-59
2021/12/25 10:50:14;;;;;;;0.00;0.00;;;;;;;9.82;80.54;99273.03;7361105;19;20021;-59
2021/12/25 10:52:45;;;;;;;0.00;0.00;;;;;;;9.79;80.33;99278.38;7365490;19;21330;-58
2021/12/25 10:55:25;;;;;;;0.00;0.00;;;;;;;9.83;80.40;99253.84;7361618;19;20043;-58
2021/12/25 10:57:52;;;;;;;0.05;0.05;;;;;;;9.78;80.34;99256.69;7361735;19;20010;-60
2021/12/25 11:00:21;;;;;;;0.00;0.00;;;;;;;9.82;80.68;99265.19;7362609;19;20581;-58
2021/12/25 11:02:51;;;;;;;0.10;0.10;;;;;;;9.82;80.36;99273.88;7365497;19;20097;-59
2021/12/25 11:05:41;;;;;;;0.00;0.00;;;;;;;9.82;80.67;99268.66;7359917;19;20375;-60
2021/12/25 11:08:14;;;;;;;0.00;0.00;;;;;;;9.79;80.11;99257.53;7355901;19;20031;-59
2021/12/25 11:10:53;;;;;;;0.00;0.00;;;;;;;9.78;80.34;99259.28;7360506;19;20003;-58
2021/12/25 11:13:38;;;;;;;0.00;0.00;;;;;;;9.78;80.44;99271.44;7365578;19;20433;-58
2021/12/25 11:16:08;;;;;;;0.00;0.00;;;;;;;9.78;80.32;99250.59;7363655;19;20128;-59
2021/12/25 11:19:00;;;;;;;0.00;0.00;;;;;;;9.79;80.27;99253.16;7363332;19;20007;-59
2021/12/25 11:21:26;;;;;;;0.00;0.00;;;;;;;9.76;80.24;99262.84;7262337;19;2004484;-59
2021/12/25 11:24:16;;;;;;;0.00;0.00;;;;;;;9.77;79.90;99251.50;7361826;19;20094;-59
2021/12/25 11:26:45;;;;;;;0.00;0.00;;;;;;;9.73;80.44;99260.38;7360164;19;20026;-59
2021/12/25 11:29:13;;;;;;;0.10;0.10;;;;;;;9.74;80.38;99259.47;7362035;19;20109;-59
2021/12/25 11:31:39;;;;;;;0.00;0.00;;;;;;;9.71;80.25;99254.38;7364943;19;20024;-58
2021/12/25 11:34:05;;;;;;;0.10;0.10;;;;;;;9.70;80.45;99252.69;7364108;19;20010;-59
2021/12/25 11:36:31;;;;;;;0.10;0.10;;;;;;;9.70;80.59;99250.94;7357273;19;21488;-59
2021/12/25 11:38:57;;;;;;;0.00;0.00;;;;;;;9.71;80.19;99243.97;7363199;19;20013;-59
2021/12/25 11:41:28;;;;;;;0.08;0.08;;;;;;;9.72;80.55;99245.66;7359130;19;22247;-59
2021/12/25 11:43:55;;;;;;;0.10;0.10;;;;;;;9.60;80.23;99227.00;7364382;19;20033;-59
2021/12/25 11:46:23;;;;;;;0.00;0.00;;;;;;;9.70;80.47;99247.47;7357407;19;20034;-58
2021/12/25 11:49:07;;;;;;;0.00;0.00;;;;;;;9.73;80.53;99229.09;7361957;19;20470;-59
2021/12/25 11:51:32;;;;;;;0.08;0.08;;;;;;;9.69;80.74;99248.41;7362912;19;20021;-58
2021/12/25 11:58:57;;;;;;;0.00;0.00;;;;;;;9.71;80.41;99228.31;7361800;19;20006;-60
2021/12/25 12:01:29;;;;;;;0.00;0.00;;;;;;;9.72;80.46;99235.22;7359334;19;20007;-59
2021/12/25 12:04:03;;;;;;;0.00;0.00;;;;;;;9.72;80.69;99219.59;7355911;19;20010;-59
2021/12/25 12:06:47;;;;;;;0.00;0.00;;;;;;;9.74;80.42;99223.00;7362024;19;20014;-59
2021/12/25 12:09:15;;;;;;;0.05;0.05;;;;;;;9.74;80.39;99226.44;7356606;19;20006;-59
2021/12/25 12:11:44;;;;;;;0.00;0.00;;;;;;;9.72;80.31;99214.38;7360162;19;20027;-58
2021/12/25 12:14:20;;;;;;;0.10;0.10;;;;;;;9.74;80.52;99223.84;7358739;19;20029;-59
2021/12/25 12:16:48;;;;;;;0.10;0.10;;;;;;;9.72;80.61;99211.75;7357115;19;20002;-59
2021/12/25 12:19:32;;;;;;;;;;;;;;;9.76;80.64;99215.94;7359655;19;20039;-59
2021/12/25 12:27:37;;;;;;;0.03;0.03;;;;;;;9.72;80.80;99203.94;7360160;19;20109;-59
2021/12/25 12:30:33;;;;;;;0.00;0.00;;;;;;;9.56;80.39;99191.56;7358669;19;20018;-59
2021/12/25 12:33:24;;;;;;;0.00;0.00;;;;;;;9.73;80.54;99195.19;7256895;19;2004463;-59
2021/12/25 12:35:51;;;;;;;0.00;0.00;;;;;;;9.74;80.38;99204.75;7257648;19;2005102;-59
2021/12/25 12:38:36;;;;;;;0.00;0.00;;;;;;;9.74;80.41;99208.19;7355787;19;20029;-59
2021/12/25 12:41:27;;;;;;;0.00;0.00;;;;;;;9.74;80.35;99204.75;7359564;19;20600;-59
2021/12/25 12:44:08;;;;;;;0.00;0.00;;;;;;;9.73;80.34;99197.81;7256700;19;2004340;-59
2021/12/25 12:47:07;;;;;;;0.00;0.00;;;;;;;9.73;80.55;99197.81;7360992;19;20421;-59
2021/12/25 12:49:38;;;;;;;0.00;0.00;;;;;;;9.71;80.71;99189.22;7254232;19;2004352;-58
2021/12/25 12:52:09;;;;;;;0.00;0.00;;;;;;;9.70;80.58;99196.19;7360414;19;20529;-59
2021/12/25 12:54:53;;;;;;;0.00;0.00;;;;;;;9.70;80.34;99190.13;7355998;19;20006;-59
2021/12/25 12:57:25;;;;;;;0.00;0.00;;;;;;;9.69;80.42;99191.91;7356634;19;20035;-58
2021/12/25 12:59:53;;;;;;;0.00;0.00;;;;;;;9.67;80.74;99187.66;7358226;19;20050;-59
2021/12/25 13:02:20;;;;;;;;;;;;;;;9.70;80.59;99179.72;7353818;19;20035;-58
2021/12/25 13:04:52;;;;;;;0.00;0.00;;;;;;;9.66;80.95;99181.59;7358274;19;19915;-59
2021/12/25 13:07:20;;;;;;;0.00;0.00;;;;;;;9.67;80.50;99185.03;7357495;19;20021;-58
2021/12/25 13:09:54;;;;;;;0.00;0.00;;;;;;;9.66;81.00;99173.78;7359366;19;20043;-58